Terminal Aerodrome Forecast
Issued by NWS Charleston, WV

Home | Current Version | Previous Version | Text Only | Print | Product List | Glossary On
Versions: 1 2 3 4 5 6 7 8 9 10 11 12 13 14 15 16 17 18 19 20 21 22 23
115
FTUS41 KRLX 280902 AAA
TAFCRW
TAF AMD
KCRW 280902Z 2809/2906 00000KT 6SM BR BKN020
     FM281400 20004KT P6SM BKN040
     FM281700 24008KT P6SM BKN060
     FM282100 23011KT P6SM VCTS BKN040CB
     FM290300 19004KT P6SM BKN080=

USA.gov is the U.S. government's official web portal to all federal, state and local government web resources and services.